Time;durP1;ratioP1;P1;durP2;ratioP2;P2;SDS_P1;SDS_P2;PMS_P1;PMS_P2;Temp;Humidity;BMP_temperature;BMP_pressure;BME280_temperature;BME280_humidity;BME280_pressure;Samples;Min_cycle;Max_cycle;Signal;HPM_P1;HPM_P2
2024/01/10 00:00:49;;;;;;;3.58;3.28;;;-4.00;99.90;;;;;;5035550;28;20052;-62
2024/01/10 00:03:14;;;;;;;3.25;2.95;;;-4.20;99.90;;;;;;5035789;28;20099;-62
2024/01/10 00:05:40;;;;;;;3.90;3.60;;;-4.10;99.90;;;;;;5035539;28;20385;-62
2024/01/10 00:08:06;;;;;;;3.63;3.33;;;-3.60;99.90;;;;;;5035664;28;20516;-62
2024/01/10 00:10:32;;;;;;;4.10;3.80;;;;;;;;;;5017727;28;20119;-62
2024/01/10 00:12:57;;;;;;;3.70;3.40;;;-4.20;99.90;;;;;;5035337;28;20045;-62
2024/01/10 00:15:23;;;;;;;3.78;3.47;;;-4.20;99.90;;;;;;5035590;28;20033;-62
2024/01/10 00:17:49;;;;;;;3.80;3.40;;;-3.30;99.90;;;;;;5035522;28;20084;-62
2024/01/10 00:20:21;;;;;;;3.33;3.03;;;-3.70;99.90;;;;;;5034880;28;20057;-62
2024/01/10 00:22:47;;;;;;;3.38;3.08;;;-4.10;99.90;;;;;;5035485;28;20053;-57
2024/01/10 00:25:13;;;;;;;4.35;3.70;;;;;;;;;;5035382;28;20477;-57
2024/01/10 00:27:39;;;;;;;3.70;3.40;;;;;;;;;;5017271;28;20048;-59
2024/01/10 00:30:05;;;;;;;3.63;3.33;;;-4.20;99.90;;;;;;5017160;28;20056;-57
2024/01/10 00:32:31;;;;;;;3.08;2.88;;;;;;;;;;5017237;28;20049;-68
2024/01/10 00:34:57;;;;;;;3.30;3.00;;;-4.20;99.90;;;;;;5035417;28;20067;-69
2024/01/10 00:37:22;;;;;;;3.40;3.10;;;-3.80;99.90;;;;;;5017303;28;20428;-69
2024/01/10 00:39:48;;;;;;;6.93;3.92;;;-3.90;99.90;;;;;;5035130;28;20045;-69
2024/01/10 00:42:13;;;;;;;4.22;3.83;;;-4.00;99.90;;;;;;5017201;28;20041;-69
2024/01/10 00:44:39;;;;;;;3.78;3.47;;;-4.20;99.90;;;;;;5035116;28;20041;-71
2024/01/10 00:47:05;;;;;;;4.07;3.67;;;;;;;;;;5034982;28;20045;-70
2024/01/10 00:49:31;;;;;;;3.95;3.53;;;-4.40;99.90;;;;;;5034702;28;20052;-69
2024/01/10 00:51:56;;;;;;;3.95;3.55;;;-4.20;99.90;;;;;;5016994;28;20425;-68
2024/01/10 00:54:22;;;;;;;3.90;3.60;;;;;;;;;;5035080;28;20141;-69
2024/01/10 00:56:50;;;;;;;3.83;3.50;;;;;;;;;;5034886;28;20444;-69
2024/01/10 00:59:16;;;;;;;3.93;3.60;;;;;;;;;;5034847;28;20099;-69
2024/01/10 01:01:42;;;;;;;4.27;3.87;;;;;;;;;;5034796;28;20455;-70
2024/01/10 01:04:08;;;;;;;4.37;3.90;;;;;;;;;;5016751;28;20045;-69
2024/01/10 01:06:34;;;;;;;3.77;3.33;;;-4.70;99.90;;;;;;5016678;28;20041;-70
2024/01/10 01:09:00;;;;;;;4.00;3.60;;;;;;;;;;5016687;28;20123;-70
2024/01/10 01:11:26;;;;;;;4.32;3.92;;;;;;;;;;5016659;28;20096;-70
2024/01/10 01:13:52;;;;;;;4.00;3.58;;;;;;;;;;5034537;28;20037;-69
2024/01/10 01:16:18;;;;;;;3.67;3.38;;;;;;;;;;5034359;28;20097;-69
2024/01/10 01:18:45;;;;;;;3.40;3.10;;;;;;;;;;5015489;28;20085;-70
2024/01/10 01:21:24;;;;;;;3.67;3.38;;;;;;;;;;5034240;28;20060;-69
2024/01/10 01:23:50;;;;;;;4.03;3.63;;;-4.30;99.90;;;;;;5016744;28;20484;-69
2024/01/10 01:26:15;;;;;;;3.58;3.28;;;-4.30;99.90;;;;;;5034103;28;20099;-69
2024/01/10 01:28:41;;;;;;;3.50;3.20;;;-4.20;99.90;;;;;;5016188;28;20076;-69
2024/01/10 01:31:07;;;;;;;4.15;3.75;;;-4.60;99.90;;;;;;5034460;28;20040;-63
2024/01/10 01:33:32;;;;;;;3.80;3.50;;;-4.30;99.90;;;;;;5016378;28;20616;-62
2024/01/10 01:35:58;;;;;;;3.88;3.58;;;-4.20;99.90;;;;;;5033787;28;20038;-63
2024/01/10 01:38:24;;;;;;;3.38;3.08;;;-4.30;99.90;;;;;;5033965;28;20075;-63
2024/01/10 01:40:50;;;;;;;3.67;3.27;;;-4.60;99.90;;;;;;5033940;28;20134;-63
2024/01/10 01:43:21;;;;;;;4.22;3.83;;;-4.30;99.90;;;;;;5034001;28;20037;-63
2024/01/10 01:45:47;;;;;;;3.90;3.60;;;-4.20;99.90;;;;;;5033612;28;20038;-63
2024/01/10 01:48:13;;;;;;;3.75;3.38;;;-4.20;99.90;;;;;;5033697;28;20041;-62
2024/01/10 01:50:40;;;;;;;4.22;3.83;;;-4.50;99.90;;;;;;5033494;28;20033;-63
2024/01/10 01:53:06;;;;;;;3.08;2.85;;;-4.20;99.90;;;;;;5033716;28;20544;-63
2024/01/10 01:55:32;;;;;;;3.85;3.53;;;-4.50;99.90;;;;;;5033699;28;20064;-63
2024/01/10 01:57:57;;;;;;;4.33;3.97;;;-4.40;99.90;;;;;;5033601;28;20492;-63
2024/01/10 02:00:23;;;;;;;3.70;3.40;;;-4.50;99.90;;;;;;5033356;28;20041;-63
2024/01/10 02:02:49;;;;;;;4.40;4.00;;;-4.30;99.90;;;;;;5033625;28;20539;-62
2024/01/10 02:05:15;;;;;;;4.23;3.83;;;-4.30;99.90;;;;;;5033184;28;20543;-63
2024/01/10 02:07:41;;;;;;;4.47;4.07;;;-4.50;99.90;;;;;;5033211;28;20045;-63
2024/01/10 02:10:07;;;;;;;4.18;3.88;;;-4.40;99.90;;;;;;5033401;28;20047;-63
2024/01/10 02:12:33;;;;;;;4.30;3.90;;;-4.50;99.90;;;;;;5015518;28;20431;-63
2024/01/10 02:14:59;;;;;;;4.47;4.07;;;-4.30;99.90;;;;;;5033122;28;20052;-63
2024/01/10 02:17:25;;;;;;;4.40;4.00;;;-4.20;99.90;;;;;;5033306;28;20431;-63
2024/01/10 02:20:23;;;;;;;4.57;4.18;;;-4.30;99.90;;;;;;5032837;28;20057;-64
2024/01/10 02:22:50;;;;;;;4.60;4.20;;;-4.40;99.90;;;;;;5033236;28;20508;-63
2024/01/10 02:25:16;;;;;;;4.63;4.20;;;-4.20;99.90;;;;;;5032853;28;20041;-63
2024/01/10 02:27:42;;;;;;;4.70;4.30;;;-4.10;99.90;;;;;;5033190;28;20187;-63
2024/01/10 02:30:09;;;;;;;4.60;4.20;;;-4.20;99.90;;;;;;5033156;28;20118;-64
2024/01/10 02:32:35;;;;;;;4.17;3.80;;;-4.20;99.90;;;;;;5033179;28;20043;-63
2024/01/10 02:35:01;;;;;;;4.90;4.50;;;-4.30;99.90;;;;;;5032843;28;20052;-63
2024/01/10 02:37:26;;;;;;;4.63;4.23;;;-4.40;99.90;;;;;;5032861;28;20042;-63
2024/01/10 02:39:52;;;;;;;4.97;4.47;;;-4.40;99.90;;;;;;5033096;28;20151;-63
2024/01/10 02:42:18;;;;;;;4.47;4.07;;;-4.30;99.90;;;;;;5033154;28;20041;-69
2024/01/10 02:44:44;;;;;;;4.13;3.73;;;-4.30;99.90;;;;;;5015180;28;20115;-70
2024/01/10 02:47:11;;;;;;;4.33;3.97;;;-4.20;99.90;;;;;;5032803;28;20488;-69
2024/01/10 02:49:37;;;;;;;4.93;4.50;;;-4.20;99.90;;;;;;5015066;28;20049;-69
2024/01/10 02:52:03;;;;;;;4.63;4.22;;;-4.50;99.90;;;;;;5033020;28;20056;-69
2024/01/10 02:54:29;;;;;;;4.50;4.13;;;-4.40;99.90;;;;;;5033111;28;20045;-69
2024/01/10 02:56:55;;;;;;;4.18;3.78;;;-4.10;99.90;;;;;;5015347;28;20435;-67
2024/01/10 02:59:20;;;;;;;4.97;4.20;;;-4.30;99.90;;;;;;5014959;28;20060;-70
2024/01/10 03:01:46;;;;;;;4.55;4.15;;;-4.40;99.90;;;;;;5015226;28;20041;-70
2024/01/10 03:04:11;;;;;;;4.53;4.13;;;-4.20;99.90;;;;;;5032727;28;20149;-69
2024/01/10 03:06:37;;;;;;;4.53;4.13;;;-4.20;99.90;;;;;;5015065;28;20046;-70
2024/01/10 03:09:03;;;;;;;4.13;3.83;;;-4.30;99.90;;;;;;5014812;28;20042;-70
2024/01/10 03:11:30;;;;;;;4.40;4.00;;;-4.70;99.90;;;;;;5032781;28;20041;-69
2024/01/10 03:14:10;;;;;;;4.45;4.05;;;-4.50;99.90;;;;;;5015017;28;20093;-69
2024/01/10 03:16:36;;;;;;;3.85;3.55;;;-4.40;99.90;;;;;;5014832;28;20131;-70
2024/01/10 03:19:02;;;;;;;4.07;3.67;;;-4.60;99.90;;;;;;5014648;28;20073;-70
2024/01/10 03:21:34;;;;;;;4.27;3.90;;;-4.40;99.90;;;;;;5032449;28;20489;-70
2024/01/10 03:24:01;;;;;;;4.28;3.88;;;-4.40;99.90;;;;;;5032746;28;20048;-69
2024/01/10 03:26:28;;;;;;;3.77;3.47;;;-4.60;99.90;;;;;;5014765;28;20045;-70
2024/01/10 03:28:54;;;;;;;3.80;3.50;;;-4.70;99.90;;;;;;5032642;28;20395;-69
2024/01/10 03:31:20;;;;;;;3.80;3.50;;;-4.60;99.90;;;;;;5014734;28;20042;-69
2024/01/10 03:33:46;;;;;;;4.07;3.67;;;-4.70;99.90;;;;;;5032362;28;20041;-69
2024/01/10 03:36:15;;;;;;;4.03;3.67;;;-4.50;99.90;;;;;;5014829;28;20507;-69
2024/01/10 03:38:41;;;;;;;4.05;3.65;;;-4.50;99.90;;;;;;5014607;28;20099;-69
2024/01/10 03:41:06;;;;;;;3.70;3.40;;;-4.60;99.90;;;;;;5016194;28;20033;-70
2024/01/10 03:43:32;;;;;;;4.20;3.83;;;-4.40;99.90;;;;;;5018258;28;20500;-69
2024/01/10 03:45:58;;;;;;;4.07;3.67;;;-4.80;99.90;;;;;;5036179;28;20482;-69
2024/01/10 03:48:24;;;;;;;4.30;3.90;;;-4.60;99.90;;;;;;5035965;28;20373;-69
2024/01/10 03:50:50;;;;;;;4.25;3.83;;;-4.50;99.90;;;;;;5018271;28;20048;-69
2024/01/10 03:53:15;;;;;;;4.05;3.72;;;-4.50;99.90;;;;;;5035747;28;20045;-64
2024/01/10 03:55:41;;;;;;;4.50;3.95;;;-4.60;99.90;;;;;;5017997;28;20121;-63
2024/01/10 03:58:07;;;;;;;4.30;3.90;;;-4.60;99.90;;;;;;5036157;28;20509;-63
2024/01/10 04:00:33;;;;;;;4.55;4.15;;;-4.60;99.90;;;;;;5035765;28;20492;-63
2024/01/10 04:02:59;;;;;;;4.05;3.75;;;-4.70;99.90;;;;;;5035913;28;20036;-59
2024/01/10 04:05:25;;;;;;;4.28;3.97;;;-4.80;99.90;;;;;;5035494;28;20052;-60
2024/01/10 04:07:51;;;;;;;4.40;4.00;;;-4.40;99.90;;;;;;5017990;28;20095;-59
2024/01/10 04:10:17;;;;;;;4.93;4.53;;;-4.50;99.90;;;;;;5035408;28;20131;-59
2024/01/10 04:12:44;;;;;;;3.77;3.47;;;-4.40;99.90;;;;;;5035598;28;20029;-59
2024/01/10 04:15:10;;;;;;;4.30;3.90;;;-4.60;99.90;;;;;;5035312;28;20140;-62
2024/01/10 04:17:36;;;;;;;4.22;3.83;;;-4.40;99.90;;;;;;5035531;28;20116;-64
2024/01/10 04:20:16;;;;;;;4.57;4.17;;;-4.40;99.90;;;;;;5035057;28;20560;-59
2024/01/10 04:22:48;;;;;;;3.73;3.43;;;-4.70;99.90;;;;;;5035413;28;20049;-60
2024/01/10 04:25:14;;;;;;;4.72;4.30;;;-4.60;99.90;;;;;;5017379;28;20412;-60
2024/01/10 04:27:39;;;;;;;4.50;4.10;;;-4.50;99.90;;;;;;5017330;28;20511;-59
2024/01/10 04:30:06;;;;;;;3.87;3.57;;;-4.60;99.90;;;;;;5035252;28;20038;-59
2024/01/10 04:32:31;;;;;;;4.50;4.10;;;-4.60;99.90;;;;;;5017218;28;20439;-59
2024/01/10 04:34:57;;;;;;;4.60;4.20;;;-4.50;99.90;;;;;;5035259;28;20034;-59
2024/01/10 04:37:23;;;;;;;4.90;4.47;;;-4.50;99.90;;;;;;5034877;28;20037;-59
2024/01/10 04:39:48;;;;;;;4.35;3.95;;;-4.80;99.90;;;;;;5034733;28;20044;-59
2024/01/10 04:42:15;;;;;;;4.18;3.88;;;-4.70;99.90;;;;;;5035115;28;20034;-59
2024/01/10 04:44:40;;;;;;;4.73;4.33;;;-4.90;99.90;;;;;;5017085;28;20484;-60
2024/01/10 04:47:07;;;;;;;3.63;3.30;;;-4.60;99.90;;;;;;5016936;28;20083;-59
2024/01/10 04:49:33;;;;;;;4.50;4.10;;;-4.50;99.90;;;;;;5034960;28;20045;-59
2024/01/10 04:51:59;;;;;;;4.30;3.90;;;-4.50;99.90;;;;;;5033704;28;20042;-60
2024/01/10 04:54:24;;;;;;;4.53;4.15;;;-4.70;99.90;;;;;;5016722;28;20405;-60
2024/01/10 04:56:50;;;;;;;4.65;4.25;;;-5.00;99.90;;;;;;5034789;28;20488;-60
2024/01/10 04:59:15;;;;;;;3.78;3.47;;;-4.80;99.90;;;;;;5034762;28;20042;-60
2024/01/10 05:01:41;;;;;;;4.30;3.77;;;-4.50;99.90;;;;;;5016727;28;20042;-61
2024/01/10 05:04:07;;;;;;;4.47;4.07;;;-4.90;99.90;;;;;;5017022;28;20096;-61
2024/01/10 05:06:32;;;;;;;4.27;3.87;;;-4.90;99.90;;;;;;5034554;28;20041;-59
2024/01/10 05:08:58;;;;;;;3.53;3.23;;;-4.70;99.90;;;;;;5016752;28;20041;-60
2024/01/10 05:11:27;;;;;;;4.47;4.07;;;-4.70;99.90;;;;;;5016707;28;20064;-59
2024/01/10 05:13:53;;;;;;;4.03;3.63;;;-4.60;99.90;;;;;;5034333;28;20037;-69
2024/01/10 05:16:19;;;;;;;4.55;4.15;;;-4.60;99.90;;;;;;5016462;28;20042;-69
2024/01/10 05:18:45;;;;;;;4.10;3.70;;;-4.90;99.90;;;;;;5034374;28;20033;-69
2024/01/10 05:21:17;;;;;;;4.37;3.90;;;-4.60;99.90;;;;;;5016015;28;20057;-69
2024/01/10 05:23:43;;;;;;;6.07;4.00;;;-4.10;99.90;;;;;;5016362;28;20455;-69
2024/01/10 05:26:08;;;;;;;5.20;4.70;;;-4.50;99.90;;;;;;5034050;28;20048;-70
2024/01/10 05:28:34;;;;;;;4.50;4.10;;;-4.80;99.90;;;;;;5016183;28;20531;-71
2024/01/10 05:31:00;;;;;;;3.83;3.53;;;-4.60;99.90;;;;;;5034247;28;20485;-71
2024/01/10 05:33:26;;;;;;;3.97;3.58;;;-4.50;99.90;;;;;;5016361;28;20056;-69
2024/01/10 05:35:51;;;;;;;4.40;4.00;;;-4.50;99.90;;;;;;5033592;28;20095;-69
2024/01/10 05:38:17;;;;;;;4.03;3.73;;;-4.50;99.90;;;;;;5016033;28;20087;-70
2024/01/10 05:40:43;;;;;;;3.93;3.63;;;-4.60;99.90;;;;;;5016144;28;20041;-69
2024/01/10 05:43:10;;;;;;;3.90;3.60;;;-4.60;99.90;;;;;;5015925;28;20041;-70
2024/01/10 05:45:36;;;;;;;4.47;4.07;;;-4.70;99.90;;;;;;5033642;28;20083;-70
2024/01/10 05:48:02;;;;;;;5.10;4.60;;;-4.50;99.90;;;;;;5016054;28;20534;-71
2024/01/10 05:50:28;;;;;;;4.03;3.73;;;-4.60;99.90;;;;;;5033556;28;20103;-70
2024/01/10 05:52:54;;;;;;;4.43;4.03;;;-4.30;99.90;;;;;;5015771;28;20049;-70
2024/01/10 05:55:19;;;;;;;4.20;3.80;;;-4.70;99.90;;;;;;5015888;28;20045;-71
2024/01/10 05:57:45;;;;;;;3.45;3.15;;;-4.60;99.90;;;;;;5015817;28;20044;-71
2024/01/10 06:00:12;;;;;;;4.23;3.83;;;-4.50;99.90;;;;;;5033631;28;20128;-67
2024/01/10 06:02:42;;;;;;;4.50;4.10;;;-4.80;99.90;;;;;;5033631;28;20390;-70
2024/01/10 06:05:11;;;;;;;3.93;3.53;;;-4.80;99.90;;;;;;5033120;28;20120;-70
2024/01/10 06:07:38;;;;;;;3.83;3.53;;;-4.60;99.90;;;;;;5032328;28;20048;-69
2024/01/10 06:10:04;;;;;;;4.37;3.97;;;-4.70;99.90;;;;;;5015436;28;20045;-69
2024/01/10 06:12:30;;;;;;;4.10;3.80;;;-4.60;99.90;;;;;;5015505;28;20052;-59
2024/01/10 06:14:55;;;;;;;4.73;4.33;;;-4.80;99.90;;;;;;5033404;28;20448;-59
2024/01/10 06:17:21;;;;;;;4.33;3.93;;;-4.60;99.90;;;;;;5015403;28;20539;-59
2024/01/10 06:19:54;;;;;;;4.30;3.90;;;-4.60;99.90;;;;;;5031536;28;20413;-59
2024/01/10 06:22:33;;;;;;;4.40;4.00;;;-4.60;99.90;;;;;;5015355;28;20091;-71
2024/01/10 06:24:59;;;;;;;4.13;3.73;;;-4.70;99.90;;;;;;5015678;28;20053;-70
2024/01/10 06:27:24;;;;;;;4.27;3.90;;;-4.70;99.90;;;;;;5015265;28;20103;-71
2024/01/10 06:29:50;;;;;;;4.33;3.93;;;-4.90;99.90;;;;;;5015195;28;20049;-67
2024/01/10 06:32:16;;;;;;;4.57;4.17;;;-4.70;99.90;;;;;;5032895;28;20416;-69
2024/01/10 06:34:41;;;;;;;4.40;3.93;;;-4.90;99.90;;;;;;5033177;28;20542;-69
2024/01/10 06:37:07;;;;;;;4.17;3.80;;;-5.00;99.90;;;;;;5033250;28;20044;-70
2024/01/10 06:39:33;;;;;;;4.57;4.17;;;-4.70;99.90;;;;;;4998721;28;20377;-69
2024/01/10 06:41:59;;;;;;;4.67;4.27;;;-4.80;99.90;;;;;;5033119;28;20084;-70
2024/01/10 06:44:24;;;;;;;4.30;3.90;;;-4.60;99.90;;;;;;5031890;28;20115;-70
2024/01/10 06:46:51;;;;;;;4.43;4.03;;;-4.80;99.90;;;;;;4998753;28;20048;-70
2024/01/10 06:49:17;;;;;;;5.73;4.47;;;-4.60;99.90;;;;;;5033031;28;20038;-70
2024/01/10 06:51:42;;;;;;;4.47;4.07;;;-4.80;99.90;;;;;;5015238;28;20540;-68
2024/01/10 06:54:08;;;;;;;4.10;3.70;;;-4.70;99.90;;;;;;5015179;28;20481;-68
2024/01/10 06:56:35;;;;;;;3.90;3.60;;;-4.50;99.90;;;;;;5014968;28;20048;-69
2024/01/10 06:59:01;;;;;;;4.43;4.03;;;-4.50;99.90;;;;;;5014913;28;20416;-69
2024/01/10 07:01:27;;;;;;;4.27;3.87;;;-4.90;99.90;;;;;;5031418;28;20069;-69
2024/01/10 07:03:56;;;;;;;6.73;3.83;;;-4.90;99.90;;;;;;5032724;28;20041;-69
2024/01/10 07:06:22;;;;;;;4.53;4.13;;;-4.90;99.90;;;;;;5015163;28;20048;-70
2024/01/10 07:08:49;;;;;;;4.77;4.30;;;-4.90;99.90;;;;;;5032816;28;20120;-68
2024/01/10 07:11:19;;;;;;;4.10;3.80;;;-4.90;99.90;;;;;;5014780;28;20038;-69
2024/01/10 07:13:45;;;;;;;5.70;4.80;;;-5.00;99.90;;;;;;5014894;28;20405;-70
2024/01/10 07:16:11;;;;;;;4.90;4.50;;;-5.00;99.90;;;;;;5034362;28;20041;-70
2024/01/10 07:18:37;;;;;;;5.10;4.60;;;-4.90;99.90;;;;;;5036540;28;20060;-70
2024/01/10 07:21:10;;;;;;;5.33;4.83;;;-4.90;99.90;;;;;;5018308;28;20057;-70
2024/01/10 07:23:38;;;;;;;4.63;4.23;;;-4.90;99.90;;;;;;5002357;28;20090;-60
2024/01/10 07:26:04;;;;;;;4.40;4.00;;;-4.90;99.90;;;;;;5036559;28;20060;-59
2024/01/10 07:28:30;;;;;;;4.97;4.57;;;-4.90;99.90;;;;;;5036185;28;20050;-60
2024/01/10 07:30:56;;;;;;;4.53;4.13;;;-5.00;99.90;;;;;;5018673;28;20075;-60
2024/01/10 07:33:21;;;;;;;3.70;3.40;;;-5.00;99.90;;;;;;5018315;28;20120;-59
2024/01/10 07:35:47;;;;;;;4.87;4.37;;;-4.90;99.90;;;;;;5036367;28;20042;-60
2024/01/10 07:38:12;;;;;;;4.87;4.40;;;-5.00;99.90;;;;;;5018614;28;20037;-60
2024/01/10 07:40:38;;;;;;;4.60;4.20;;;-5.00;99.90;;;;;;5035971;28;20080;-60
2024/01/10 07:43:04;;;;;;;4.82;4.43;;;-5.00;99.90;;;;;;5018243;28;20120;-60
2024/01/10 07:45:30;;;;;;;4.60;4.20;;;-5.10;99.90;;;;;;5035750;28;20042;-60
2024/01/10 07:47:56;;;;;;;4.83;4.27;;;-5.00;99.90;;;;;;5035219;28;20377;-60
2024/01/10 07:50:24;;;;;;;4.50;4.17;;;-5.00;99.90;;;;;;5035080;28;20083;-60
2024/01/10 07:52:49;;;;;;;4.97;4.53;;;-4.90;99.90;;;;;;5034856;28;20045;-60
2024/01/10 07:55:15;;;;;;;4.37;3.97;;;-4.90;99.90;;;;;;5017095;28;20041;-60
2024/01/10 07:57:42;;;;;;;3.93;3.60;;;-4.90;99.90;;;;;;5035016;28;20041;-60
2024/01/10 08:00:11;;;;;;;4.43;4.03;;;-4.90;99.90;;;;;;5016865;28;20037;-59
2024/01/10 08:02:40;;;;;;;4.23;3.83;;;-4.90;99.90;;;;;;5034945;28;20473;-59
2024/01/10 08:05:09;;;;;;;4.47;4.07;;;-4.90;99.90;;;;;;5034967;28;20037;-61
2024/01/10 08:07:37;;;;;;;4.55;4.15;;;-4.90;99.90;;;;;;5034811;28;20045;-60
2024/01/10 08:10:05;;;;;;;4.60;4.20;;;-4.90;99.90;;;;;;5016653;28;20049;-60
2024/01/10 08:12:30;;;;;;;4.63;4.23;;;-4.80;99.90;;;;;;5016863;28;20057;-62
2024/01/10 08:14:56;;;;;;;4.20;3.80;;;-4.80;99.90;;;;;;5016948;28;20397;-60
2024/01/10 08:17:23;;;;;;;4.67;4.27;;;-4.80;99.90;;;;;;5034407;28;20044;-60
2024/01/10 08:19:48;;;;;;;3.97;3.57;;;-4.70;99.90;;;;;;5033998;28;20144;-59
2024/01/10 08:22:28;;;;;;;4.07;3.70;;;-4.80;99.90;;;;;;5034344;28;20048;-59
2024/01/10 08:24:55;;;;;;;5.00;4.60;;;-4.70;99.90;;;;;;5034320;28;20052;-59
2024/01/10 08:27:21;;;;;;;3.90;3.60;;;-4.70;99.90;;;;;;5034061;28;20045;-60
2024/01/10 08:29:47;;;;;;;4.90;4.43;;;-4.70;99.90;;;;;;5034043;28;20037;-59
2024/01/10 08:32:12;;;;;;;4.70;4.30;;;-4.60;99.90;;;;;;5034695;28;20052;-69
2024/01/10 08:34:38;;;;;;;5.00;4.50;;;-4.60;99.90;;;;;;5016445;28;20046;-69
2024/01/10 08:37:04;;;;;;;4.47;4.07;;;-4.50;99.90;;;;;;5000013;28;20481;-70
2024/01/10 08:39:30;;;;;;;4.90;4.47;;;-4.50;99.90;;;;;;5016305;28;20037;-68
2024/01/10 08:41:57;;;;;;;5.40;4.90;;;-4.50;99.90;;;;;;5016171;28;20045;-69
2024/01/10 08:44:22;;;;;;;6.40;4.72;;;-4.40;99.90;;;;;;5016144;28;20049;-69
2024/01/10 08:46:50;;;;;;;5.07;4.57;;;-4.30;99.90;;;;;;5016230;28;20048;-67
2024/01/10 08:49:16;;;;;;;4.80;4.40;;;-4.30;99.90;;;;;;5033752;28;20048;-68
2024/01/10 08:51:43;;;;;;;4.37;3.97;;;-4.20;99.90;;;;;;5016005;28;20045;-70
2024/01/10 08:54:09;;;;;;;5.20;4.60;;;-4.20;99.90;;;;;;5016077;28;20437;-68
2024/01/10 08:56:35;;;;;;;5.27;4.50;;;-4.10;99.90;;;;;;5015894;28;20077;-69
2024/01/10 08:59:01;;;;;;;4.95;4.45;;;-4.10;99.50;;;;;;5015991;28;20149;-69
2024/01/10 09:01:26;;;;;;;5.17;4.67;;;-4.00;98.90;;;;;;5033713;28;20456;-70
2024/01/10 09:03:52;;;;;;;4.90;4.40;;;-4.00;97.30;;;;;;5016039;28;20041;-70
2024/01/10 09:06:18;;;;;;;4.47;4.07;;;-4.00;95.00;;;;;;5015842;28;20037;-69
2024/01/10 09:08:43;;;;;;;4.88;4.35;;;-3.90;95.40;;;;;;4999447;28;20132;-69
2024/01/10 09:11:09;;;;;;;4.55;4.07;;;-3.90;95.20;;;;;;5015567;28;20489;-70
2024/01/10 09:13:37;;;;;;;5.10;4.60;;;-3.80;94.80;;;;;;5033789;28;20037;-70
2024/01/10 09:16:03;;;;;;;4.97;4.53;;;-3.70;94.10;;;;;;5015699;28;20060;-70
2024/01/10 09:18:29;;;;;;;5.00;4.50;;;-3.70;92.30;;;;;;5016270;28;20083;-70
2024/01/10 09:21:01;;;;;;;5.28;4.78;;;-3.70;91.80;;;;;;5015457;28;20081;-70
2024/01/10 09:23:34;;;;;;;4.47;4.07;;;-3.70;91.80;;;;;;5015676;28;20552;-60
2024/01/10 09:26:00;;;;;;;5.15;4.65;;;-3.60;90.90;;;;;;5033271;28;20335;-60
2024/01/10 09:28:26;;;;;;;4.47;4.07;;;-3.60;91.10;;;;;;5033278;28;20440;-61
2024/01/10 09:30:51;;;;;;;4.80;4.30;;;-3.50;91.20;;;;;;5033232;28;20041;-62
2024/01/10 09:33:17;;;;;;;5.00;4.35;;;-3.50;90.90;;;;;;5015222;28;20060;-60
2024/01/10 09:35:43;;;;;;;4.82;4.32;;;-3.00;91.80;;;;;;5015092;28;20103;-60
2024/01/10 09:38:09;;;;;;;4.82;4.43;;;-3.20;90.90;;;;;;5032295;28;20037;-60
2024/01/10 09:40:34;;;;;;;4.53;4.13;;;-3.10;90.10;;;;;;5032810;28;20044;-60
2024/01/10 09:43:00;;;;;;;5.22;4.72;;;-3.20;91.40;;;;;;5033109;28;20045;-65
2024/01/10 09:45:27;;;;;;;4.90;4.40;;;-3.00;91.30;;;;;;5033059;28;20041;-64
2024/01/10 09:47:56;;;;;;;5.25;4.75;;;-3.10;90.20;;;;;;5032988;28;20041;-65
2024/01/10 09:50:23;;;;;;;5.18;4.68;;;-3.20;91.50;;;;;;5014805;28;20435;-64
2024/01/10 09:52:53;;;;;;;4.28;3.88;;;-3.10;92.90;;;;;;5032566;28;20041;-65
2024/01/10 09:55:23;;;;;;;5.00;4.50;;;-2.80;93.70;;;;;;5032622;28;20481;-65
2024/01/10 09:57:49;;;;;;;4.57;4.18;;;-2.70;94.60;;;;;;5032571;28;20047;-65
2024/01/10 10:00:16;;;;;;;4.05;3.40;;;-2.80;94.90;;;;;;5032817;28;20095;-64
2024/01/10 10:02:42;;;;;;;4.43;3.97;;;-2.70;95.20;;;;;;5032497;28;20084;-65
2024/01/10 10:05:15;;;;;;;4.82;4.32;;;-2.70;93.60;;;;;;5032851;28;20088;-65
2024/01/10 10:07:49;;;;;;;4.22;3.83;;;-2.50;94.90;;;;;;5032694;28;20048;-65
2024/01/10 10:10:15;;;;;;;4.97;4.38;;;-2.50;94.50;;;;;;5032547;28;20042;-65
2024/01/10 10:12:55;;;;;;;4.05;3.65;;;-2.80;91.60;;;;;;5032392;28;20124;-65
2024/01/10 10:15:22;;;;;;;4.60;4.20;;;-2.70;93.40;;;;;;5032295;28;20049;-65
2024/01/10 10:17:49;;;;;;;4.45;4.05;;;;;;;;;;5032147;28;20073;-65
2024/01/10 10:20:37;;;;;;;4.95;4.45;;;;;;;;;;5031845;28;20092;-65
2024/01/10 10:23:12;;;;;;;4.10;3.70;;;;;;;;;;5014411;28;20052;-66
2024/01/10 10:25:43;;;;;;;4.57;4.13;;;-2.70;43.70;;;;;;5014365;28;20624;-65
2024/01/10 10:28:09;;;;;;;5.30;4.40;;;-2.70;38.30;;;;;;4997946;28;20041;-64
2024/01/10 10:30:35;;;;;;;4.53;3.85;;;-2.70;30.70;;;;;;5014415;28;20067;-65
2024/01/10 10:33:07;;;;;;;4.13;3.72;;;-2.20;17.80;;;;;;5014652;28;20040;-61
2024/01/10 10:35:34;;;;;;;4.10;3.47;;;-2.70;18.80;;;;;;5014207;28;20536;-60
2024/01/10 10:38:00;;;;;;;4.25;3.85;;;-2.60;13.50;;;;;;5014474;28;20040;-61
2024/01/10 10:40:25;;;;;;;4.38;3.97;;;-2.60;2.70;;;;;;5032230;28;20041;-61
2024/01/10 10:42:57;;;;;;;4.18;3.78;;;-2.60;8.40;;;;;;5032253;28;20041;-64
2024/01/10 10:45:26;;;;;;;4.53;3.63;;;-2.50;3.40;;;;;;5031679;28;20049;-64
2024/01/10 10:48:00;;;;;;;4.35;3.90;;;-2.50;1.00;;;;;;5032088;28;20477;-65
2024/01/10 10:50:33;;;;;;;4.30;3.70;;;-2.50;1.00;;;;;;5014773;28;20049;-67
2024/01/10 10:53:02;;;;;;;4.60;4.18;;;-2.40;1.00;;;;;;5018361;28;20110;-64
2024/01/10 10:55:29;;;;;;;5.07;4.57;;;-2.40;1.00;;;;;;5035880;28;20030;-64
2024/01/10 10:57:57;;;;;;;5.07;4.32;;;-2.30;1.00;;;;;;5035876;28;20033;-64
2024/01/10 11:00:27;;;;;;;4.00;3.60;;;-2.30;1.00;;;;;;5035780;28;20041;-65
2024/01/10 11:02:57;;;;;;;3.60;3.30;;;-2.20;1.00;;;;;;5036063;28;20041;-64
2024/01/10 11:05:24;;;;;;;3.78;3.22;;;-2.20;1.00;;;;;;5018246;28;20048;-64
2024/01/10 11:07:51;;;;;;;4.03;3.58;;;-2.10;1.00;;;;;;5035718;28;20041;-64
2024/01/10 11:10:33;;;;;;;4.57;3.83;;;-2.10;1.00;;;;;;5035919;28;20507;-64
2024/01/10 11:13:37;;;;;;;3.88;3.47;;;-2.00;1.00;;;;;;5017664;28;20127;-64
2024/01/10 11:16:21;;;;;;;3.83;3.40;;;-1.90;1.00;;;;;;5035855;28;20405;-65
2024/01/10 11:19:37;;;;;;;4.30;3.47;;;-1.80;1.00;;;;;;5017973;28;20068;-64
2024/01/10 11:22:23;;;;;;;3.97;3.58;;;-1.70;1.00;;;;;;4974156;28;20042;-64
2024/01/10 11:24:49;;;;;;;3.65;3.03;;;-1.70;1.00;;;;;;4974329;28;20053;-64
2024/01/10 11:27:16;;;;;;;3.28;2.97;;;-1.60;1.00;;;;;;5002496;28;20061;-65
2024/01/10 11:29:42;;;;;;;3.78;3.42;;;-1.50;1.00;;;;;;5015494;28;20050;-65
2024/01/10 11:32:17;;;;;;;4.03;3.63;;;-1.50;1.00;;;;;;5015803;28;20568;-65
2024/01/10 11:34:59;;;;;;;3.83;3.53;;;-1.40;1.00;;;;;;5015571;28;20030;-64
2024/01/10 11:37:58;;;;;;;3.08;2.78;;;-1.20;1.00;;;;;;4998059;28;20045;-65
2024/01/10 11:40:48;;;;;;;3.30;3.00;;;-1.00;99.90;;;;;;4998513;28;20049;-64
2024/01/10 11:43:14;;;;;;;3.05;2.72;;;-0.70;99.90;;;;;;4998019;28;20041;-63
2024/01/10 11:45:51;;;;;;;4.15;3.50;;;-0.60;99.90;;;;;;5015531;28;20477;-64
2024/01/10 11:48:27;;;;;;;3.03;2.72;;;-0.50;99.90;;;;;;5015121;28;20080;-64
2024/01/10 11:50:53;;;;;;;3.92;3.53;;;-0.40;99.90;;;;;;5015360;28;20069;-64
2024/01/10 11:53:39;;;;;;;3.55;3.22;;;-0.10;99.90;;;;;;5015380;28;20053;-65
2024/01/10 11:56:16;;;;;;;3.45;3.15;;;-0.20;99.90;;;;;;4997473;28;20046;-65
2024/01/10 11:59:08;;;;;;;3.55;3.25;;;0.10;99.90;;;;;;5015080;28;20045;-65
2024/01/10 12:01:34;;;;;;;3.97;3.60;;;0.80;99.90;;;;;;5014764;28;20112;-65
2024/01/10 12:04:00;;;;;;;3.35;3.00;;;1.10;99.90;;;;;;5015977;28;20037;-64
2024/01/10 12:06:26;;;;;;;3.30;2.97;;;1.50;99.90;;;;;;5015637;28;20416;-58
2024/01/10 12:08:52;;;;;;;3.08;2.78;;;1.80;1.00;;;;;;5013887;28;20050;-60
2024/01/10 12:11:18;;;;;;;3.38;3.08;;;2.30;99.90;;;;;;4997619;28;20063;-61
2024/01/10 12:13:44;;;;;;;2.97;2.70;;;2.70;99.90;;;;;;4997477;28;20129;-61
2024/01/10 12:16:13;;;;;;;3.47;3.13;;;3.10;99.90;;;;;;5015268;28;20041;-61
2024/01/10 12:18:39;;;;;;;3.40;3.10;;;3.30;99.90;;;;;;5014813;28;20409;-60
2024/01/10 12:21:12;;;;;;;3.47;3.10;;;3.60;99.90;;;;;;5009088;28;20061;-62
2024/01/10 12:23:38;;;;;;;3.00;2.72;;;3.50;58.10;;;;;;5034400;28;20033;-61
2024/01/10 12:26:08;;;;;;;3.22;2.90;;;3.10;99.90;;;;;;5033054;28;20041;-61
2024/01/10 12:28:37;;;;;;;3.58;3.28;;;2.60;1.00;;;;;;5000441;28;20041;-61
2024/01/10 12:31:04;;;;;;;3.45;3.15;;;2.30;99.90;;;;;;5016519;28;20042;-61
2024/01/10 12:33:32;;;;;;;3.63;3.30;;;1.90;99.90;;;;;;5034083;28;20045;-63
2024/01/10 12:36:07;;;;;;;3.13;2.83;;;1.60;99.90;;;;;;5034427;28;20044;-62
2024/01/10 12:38:33;;;;;;;3.58;3.28;;;1.40;99.90;;;;;;5034299;28;20033;-60
2024/01/10 12:41:00;;;;;;;2.75;2.47;;;1.30;99.90;;;;;;5034034;28;20042;-60
2024/01/10 12:43:26;;;;;;;3.28;2.97;;;1.10;99.90;;;;;;5033943;28;20042;-62
2024/01/10 12:46:12;;;;;;;3.30;2.92;;;1.10;99.90;;;;;;5033844;28;20033;-60
2024/01/10 12:48:41;;;;;;;3.22;2.92;;;1.20;14.30;;;;;;5033917;28;20085;-61
2024/01/10 12:51:11;;;;;;;3.30;3.00;;;1.30;1.00;;;;;;5034000;28;20037;-61
2024/01/10 12:53:39;;;;;;;3.38;3.08;;;1.40;1.00;;;;;;5034010;28;20499;-61
2024/01/10 12:56:06;;;;;;;2.88;2.60;;;1.20;1.00;;;;;;5033937;28;20612;-59
2024/01/10 12:58:32;;;;;;;2.95;2.65;;;1.30;1.00;;;;;;5033642;28;20037;-59